This is the latest recevied weather packets stored in our database for station/object K5NWZ. If no packets are shown the sender has not sent any weather packets the latest 10 day(s).
| Time | Temp. | Humidity | Pressure | Rain* | Wind** | Luminosity | Snow |
|---|---|---|---|---|---|---|---|
| 1787584669 | 28.33° C | 38% | 1030.8 hPa | 0 mm | - | 434 W/m² | - |
| 1787584367 | 27.22° C | 40% | 1030.9 hPa | 0 mm | - | 409 W/m² | - |
| 1787584066 | 26.11° C | 44% | 1030.8 hPa | 0 mm | - | 392 W/m² | - |
| 1787583762 | 27.78° C | 42% | 1031 hPa | 0 mm | - | 376 W/m² | - |
| 1787583457 | 26.67° C | 41% | 1030.9 hPa | 0 mm | - | 355 W/m² | - |
| 1787583155 | 26.11° C | 44% | 1030.8 hPa | 0 mm | - | 330 W/m² | - |
| 1787582851 | 25.56° C | 46% | 1030.8 hPa | 0 mm | - | 312 W/m² | - |
| 1787582546 | 25° C | 45% | 1031 hPa | 0 mm | - | 298 W/m² | - |
| 1787582246 | 24.44° C | 48% | 1030.9 hPa | 0 mm | - | 273 W/m² | - |
| 1787581940 | 23.33° C | 53% | 1031 hPa | 0 mm | - | 258 W/m² | - |
| 1787581635 | 22.78° C | 55% | 1030.9 hPa | 0 mm | - | 244 W/m² | - |
| 1787581330 | 22.78° C | 56% | 1031 hPa | 0 mm | - | 231 W/m² | - |
| 1787581025 | 22.78° C | 56% | 1030.9 hPa | 0 mm | - | 220 W/m² | - |
| 1787580721 | 22.78° C | 54% | 1030.6 hPa | 0 mm | - | 206 W/m² | - |
| 1787580416 | 21.67° C | 59% | 1030.9 hPa | 0 mm | - | 193 W/m² | - |
| 1787580111 | 21.11° C | 61% | 1030.9 hPa | 0 mm | - | 181 W/m² | - |
| 1787579811 | 20.56° C | 61% | 1030.8 hPa | 0 mm | - | 164 W/m² | - |
| 1787579505 | 20° C | 62% | 1030.8 hPa | 0 mm | - | 156 W/m² | - |
| 1787579201 | 19.44° C | 63% | 1031 hPa | 0 mm | - | 129 W/m² | - |
| 1787578896 | 18.33° C | 65% | 1030.5 hPa | 0 mm | - | 77 W/m² | - |
| 1787578592 | 18.33° C | 67% | 1030.5 hPa | 0 mm | - | 38 W/m² | - |
| 1787578291 | 18.89° C | 64% | 1030.3 hPa | 0 mm | - | 40 W/m² | - |
| 1787577987 | 18.89° C | 63% | 1030.2 hPa | 0 mm | - | 34 W/m² | - |
| 1787577682 | 18.89° C | 56% | 1029.9 hPa | 0 mm | - | 35 W/m² | - |
| 1787577378 | 18.89° C | 57% | 1030.1 hPa | 0 mm | - | 33 W/m² | - |
* Rain latest hour (hover to see other rain measurements)
** Current wind speed in m/s (hover to see current wind gust speed)